Accueil
METAR-TAF:

METAR-TAF

Aéroports :

Aéroport de Palerme

Palerme, Italie

latitude: 38-11N, longitude: 013-06E, altitude: 21 m

Observation

Le bulletin a été fait il y a 31 minutes, à 23:20 UTC
Vent 5 kt de nord/nord-est
Température 28°C
Humidité 79%
Pression 1013 hPa
Visibilité 10 km ou plus
pas de nuages en-dessous de 1500 mètres et pas de cumulonimbus.

METAR: LICJ 032320Z 03005KT CAVOK 28/24 Q1013

Heure: 01:51 (23:51 UTC)

Prévision

Le bulletin a été fait il y a 51 minutes, à 23:00 UTC
Prévision valable du 04 à 00 UTC au 04 à 24 UTC
Vent 10 kt de sud
Visibilité 10 km ou plus
Nuages épars à une hauteur de 2000 ft
Evoluant progressivement
du 04 à 06 UTC au 04 à 08 UTC
Vent 16 kt de sud avec des rafales jusqu'à 26 kt
Evoluant progressivement
du 04 à 17 UTC au 04 à 19 UTC
Vent 5 kt de direction variable

TAF: LICJ 032300Z 0400/0424 18010KT 9999 SCT020 BECMG 0406/0408 19016G26KT BECMG 0417/0419 VRB05KT

Observations et prévisions météorologiques de plus de 4000 aéroports (messages METAR et TAF).

Les stations disponibles sont représentées par des disques jaunes et rouges sur la carte.

Passer la souris dessus pour voir le nom de la station.

Cliquer dessus pour voir les observations et prévisions météorologiques.

Pour changer de carte: cliquez sur les boutons verts avec une croix noire pour zoomer, sur le bouton vert avec un tiret pour effectuer un zoom arrière, ou sur les flèches vertes pour les cartes adjacentes.


METAR-TAF: